Terminal Aerodrome Forecast
Issued by NWS

Home | Current Version | Previous Version | Text Only | Print | Product List | Glossary On
Versions: 1 2 3 4 5 6 7 8 9 10 11 12 13 14 15 16 17
000
FTUS46 KSEW 282320
TAFHQM
TAF
KHQM 282320Z 2900/2924 23012KT 5SM HZ BKN030
     FM290400 27005KT P6SM BKN015
     FM291100 VRB03KT P6SM OVC010
      TEMPO 2911/2914 1SM BR OVC005
     FM291800 23008KT P6SM BKN025=

USA.gov is the U.S. government's official web portal to all federal, state and local government web resources and services.